sensor_id;sensor_type;location;lat;lon;timestamp;pressure;altitude;pressure_sealevel;temperature;humidity
23261;BME280;11799;47.740;-3.390;2023-07-30T00:00:36;101600.75;;;16.81;100.00
23261;BME280;11799;47.740;-3.390;2023-07-30T00:03:01;101603.13;;;16.84;100.00
23261;BME280;11799;47.740;-3.390;2023-07-30T00:05:27;101599.47;;;16.86;100.00
23261;BME280;11799;47.740;-3.390;2023-07-30T00:07:52;101592.31;;;16.86;100.00
23261;BME280;11799;47.740;-3.390;2023-07-30T00:10:19;101593.28;;;16.85;100.00
23261;BME280;11799;47.740;-3.390;2023-07-30T00:12:44;101593.28;;;16.85;100.00
23261;BME280;11799;47.740;-3.390;2023-07-30T00:15:10;101588.25;;;16.82;100.00
23261;BME280;11799;47.740;-3.390;2023-07-30T00:17:35;101597.22;;;16.81;100.00
23261;BME280;11799;47.740;-3.390;2023-07-30T00:20:01;101590.91;;;16.82;100.00
23261;BME280;11799;47.740;-3.390;2023-07-30T00:22:27;101584.44;;;16.84;100.00
23261;BME280;11799;47.740;-3.390;2023-07-30T00:24:53;101579.97;;;16.85;100.00
23261;BME280;11799;47.740;-3.390;2023-07-30T00:27:18;101578.84;;;16.88;100.00
23261;BME280;11799;47.740;-3.390;2023-07-30T00:29:44;101584.16;;;16.88;100.00
23261;BME280;11799;47.740;-3.390;2023-07-30T00:32:09;101586.13;;;16.86;100.00
23261;BME280;11799;47.740;-3.390;2023-07-30T00:34:35;101592.59;;;16.83;100.00
23261;BME280;11799;47.740;-3.390;2023-07-30T00:37:00;101595.97;;;16.85;100.00
23261;BME280;11799;47.740;-3.390;2023-07-30T00:39:26;101601.28;;;16.85;100.00
23261;BME280;11799;47.740;-3.390;2023-07-30T00:41:51;101600.03;;;16.79;100.00
23261;BME280;11799;47.740;-3.390;2023-07-30T00:44:17;101607.19;;;16.79;100.00
23261;BME280;11799;47.740;-3.390;2023-07-30T00:46:42;101608.19;;;16.78;100.00
23261;BME280;11799;47.740;-3.390;2023-07-30T00:49:08;101607.66;;;16.74;100.00
23261;BME280;11799;47.740;-3.390;2023-07-30T00:51:34;101612.66;;;16.77;100.00
23261;BME280;11799;47.740;-3.390;2023-07-30T00:54:00;101610.84;;;16.78;100.00
23261;BME280;11799;47.740;-3.390;2023-07-30T00:56:26;101607.19;;;16.79;100.00
23261;BME280;11799;47.740;-3.390;2023-07-30T00:58:52;101609.72;;;16.80;100.00
23261;BME280;11799;47.740;-3.390;2023-07-30T01:01:18;101612.53;;;16.79;100.00
23261;BME280;11799;47.740;-3.390;2023-07-30T01:03:44;101612.28;;;16.72;100.00
23261;BME280;11799;47.740;-3.390;2023-07-30T01:06:10;101618.13;;;16.76;100.00
23261;BME280;11799;47.740;-3.390;2023-07-30T01:08:36;101618.13;;;16.76;100.00
23261;BME280;11799;47.740;-3.390;2023-07-30T01:11:02;101612.97;;;16.74;100.00
23261;BME280;11799;47.740;-3.390;2023-07-30T01:13:30;101613.50;;;16.78;100.00
23261;BME280;11799;47.740;-3.390;2023-07-30T01:15:57;101618.00;;;16.77;100.00
23261;BME280;11799;47.740;-3.390;2023-07-30T01:18:23;101628.81;;;16.76;100.00
23261;BME280;11799;47.740;-3.390;2023-07-30T01:20:52;101628.66;;;16.77;100.00
23261;BME280;11799;47.740;-3.390;2023-07-30T01:23:18;101618.00;;;16.77;100.00
23261;BME280;11799;47.740;-3.390;2023-07-30T01:25:44;101610.97;;;16.76;100.00
23261;BME280;11799;47.740;-3.390;2023-07-30T01:28:12;101599.78;;;16.73;100.00
23261;BME280;11799;47.740;-3.390;2023-07-30T01:30:42;101606.63;;;16.75;100.00
23261;BME280;11799;47.740;-3.390;2023-07-30T01:33:11;101603.44;;;16.72;100.00
23261;BME280;11799;47.740;-3.390;2023-07-30T01:35:37;101613.97;;;16.73;100.00
23261;BME280;11799;47.740;-3.390;2023-07-30T01:38:03;101613.13;;;16.73;100.00
23261;BME280;11799;47.740;-3.390;2023-07-30T01:40:32;101617.75;;;16.71;100.00
23261;BME280;11799;47.740;-3.390;2023-07-30T01:42:57;101617.31;;;16.66;100.00
23261;BME280;11799;47.740;-3.390;2023-07-30T01:45:23;101616.47;;;16.65;100.00
23261;BME280;11799;47.740;-3.390;2023-07-30T01:47:49;101619.66;;;16.59;100.00
23261;BME280;11799;47.740;-3.390;2023-07-30T01:50:14;101618.31;;;16.65;100.00
23261;BME280;11799;47.740;-3.390;2023-07-30T01:52:40;101616.47;;;16.65;100.00
23261;BME280;11799;47.740;-3.390;2023-07-30T01:55:06;101624.59;;;16.64;100.00
23261;BME280;11799;47.740;-3.390;2023-07-30T01:57:31;101625.19;;;16.67;100.00
23261;BME280;11799;47.740;-3.390;2023-07-30T01:59:57;101628.69;;;16.68;100.00
23261;BME280;11799;47.740;-3.390;2023-07-30T02:02:23;101619.84;;;16.67;100.00
23261;BME280;11799;47.740;-3.390;2023-07-30T02:04:49;101619.84;;;16.67;100.00
23261;BME280;11799;47.740;-3.390;2023-07-30T02:07:14;101624.06;;;16.70;100.00
23261;BME280;11799;47.740;-3.390;2023-07-30T02:09:40;101624.06;;;16.70;100.00
23261;BME280;11799;47.740;-3.390;2023-07-30T02:12:06;101623.78;;;16.73;100.00
23261;BME280;11799;47.740;-3.390;2023-07-30T02:14:32;101619.16;;;16.75;100.00
23261;BME280;11799;47.740;-3.390;2023-07-30T02:17:00;101622.50;;;16.77;100.00
23261;BME280;11799;47.740;-3.390;2023-07-30T02:19:25;101629.66;;;16.76;100.00
23261;BME280;11799;47.740;-3.390;2023-07-30T02:21:51;101625.16;;;16.77;100.00
23261;BME280;11799;47.740;-3.390;2023-07-30T02:24:16;101632.19;;;16.78;100.00
23261;BME280;11799;47.740;-3.390;2023-07-30T02:26:42;101636.97;;;16.74;100.00
23261;BME280;11799;47.740;-3.390;2023-07-30T02:29:07;101633.16;;;16.77;100.00
23261;BME280;11799;47.740;-3.390;2023-07-30T02:31:33;101634.72;;;16.79;100.00
23261;BME280;11799;47.740;-3.390;2023-07-30T02:33:58;101632.50;;;16.75;100.00
23261;BME280;11799;47.740;-3.390;2023-07-30T02:36:24;101620.41;;;16.71;100.00
23261;BME280;11799;47.740;-3.390;2023-07-30T02:38:50;101641.31;;;16.75;100.00
23261;BME280;11799;47.740;-3.390;2023-07-30T02:41:16;101644.81;;;16.76;100.00
23261;BME280;11799;47.740;-3.390;2023-07-30T02:43:42;101639.34;;;16.77;100.00
23261;BME280;11799;47.740;-3.390;2023-07-30T02:46:08;101643.69;;;16.78;100.00
23261;BME280;11799;47.740;-3.390;2023-07-30T02:48:33;101645.53;;;16.78;100.00
23261;BME280;11799;47.740;-3.390;2023-07-30T02:50:59;101634.00;;;16.77;100.00
23261;BME280;11799;47.740;-3.390;2023-07-30T02:53:24;101630.22;;;16.80;100.00
23261;BME280;11799;47.740;-3.390;2023-07-30T02:55:50;101640.59;;;16.83;100.00
23261;BME280;11799;47.740;-3.390;2023-07-30T02:58:15;101641.31;;;16.85;100.00
23261;BME280;11799;47.740;-3.390;2023-07-30T03:00:41;101636.25;;;16.82;100.00
23261;BME280;11799;47.740;-3.390;2023-07-30T03:03:07;101633.03;;;16.78;100.00
23261;BME280;11799;47.740;-3.390;2023-07-30T03:05:32;101645.66;;;16.86;100.00
23261;BME280;11799;47.740;-3.390;2023-07-30T03:07:58;101636.69;;;16.87;100.00
23261;BME280;11799;47.740;-3.390;2023-07-30T03:10:23;101637.81;;;16.84;100.00
23261;BME280;11799;47.740;-3.390;2023-07-30T03:12:49;101646.66;;;16.85;100.00
23261;BME280;11799;47.740;-3.390;2023-07-30T03:15:14;101650.03;;;16.87;100.00
23261;BME280;11799;47.740;-3.390;2023-07-30T03:17:40;101646.38;;;16.88;100.00
23261;BME280;11799;47.740;-3.390;2023-07-30T03:20:06;101643.13;;;16.84;100.00
23261;BME280;11799;47.740;-3.390;2023-07-30T03:22:32;101640.88;;;16.80;100.00
23261;BME280;11799;47.740;-3.390;2023-07-30T03:24:57;101638.09;;;16.81;100.00
23261;BME280;11799;47.740;-3.390;2023-07-30T03:27:23;101639.75;;;16.82;100.00
23261;BME280;11799;47.740;-3.390;2023-07-30T03:29:48;101654.78;;;16.83;100.00
23261;BME280;11799;47.740;-3.390;2023-07-30T03:32:14;101647.91;;;16.81;100.00
23261;BME280;11799;47.740;-3.390;2023-07-30T03:34:39;101650.44;;;16.82;100.00
23261;BME280;11799;47.740;-3.390;2023-07-30T03:37:05;101652.13;;;16.83;100.00
23261;BME280;11799;47.740;-3.390;2023-07-30T03:39:31;101647.78;;;16.82;100.00
23261;BME280;11799;47.740;-3.390;2023-07-30T03:41:56;101655.78;;;16.82;100.00
23261;BME280;11799;47.740;-3.390;2023-07-30T03:44:22;101655.78;;;16.82;100.00
23261;BME280;11799;47.740;-3.390;2023-07-30T03:46:48;101649.59;;;16.82;100.00
23261;BME280;11799;47.740;-3.390;2023-07-30T03:49:14;101667.16;;;16.84;100.00
23261;BME280;11799;47.740;-3.390;2023-07-30T03:51:39;101668.84;;;16.86;100.00
23261;BME280;11799;47.740;-3.390;2023-07-30T03:54:05;101675.16;;;16.84;100.00
23261;BME280;11799;47.740;-3.390;2023-07-30T03:56:30;101670.66;;;16.85;100.00
23261;BME280;11799;47.740;-3.390;2023-07-30T03:58:56;101667.28;;;16.83;100.00
23261;BME280;11799;47.740;-3.390;2023-07-30T04:01:21;101670.94;;;16.82;100.00
23261;BME280;11799;47.740;-3.390;2023-07-30T04:03:47;101663.22;;;16.79;100.00
23261;BME280;11799;47.740;-3.390;2023-07-30T04:06:12;101682.31;;;16.84;100.00
23261;BME280;11799;47.740;-3.390;2023-07-30T04:08:38;101678.22;;;16.80;100.00
23261;BME280;11799;47.740;-3.390;2023-07-30T04:11:04;101676.84;;;16.86;100.00
23261;BME280;11799;47.740;-3.390;2023-07-30T04:13:29;101673.19;;;16.87;100.00
23261;BME280;11799;47.740;-3.390;2023-07-30T04:15:55;101673.47;;;16.83;100.00
23261;BME280;11799;47.740;-3.390;2023-07-30T04:18:20;101669.25;;;16.81;100.00
23261;BME280;11799;47.740;-3.390;2023-07-30T04:20:48;101665.16;;;16.77;100.00
23261;BME280;11799;47.740;-3.390;2023-07-30T04:23:14;101667.69;;;16.78;100.00
23261;BME280;11799;47.740;-3.390;2023-07-30T04:25:39;101676.13;;;16.83;100.00
23261;BME280;11799;47.740;-3.390;2023-07-30T04:28:05;101675.56;;;16.80;100.00
23261;BME280;11799;47.740;-3.390;2023-07-30T04:30:32;101685.97;;;16.83;100.00
23261;BME280;11799;47.740;-3.390;2023-07-30T04:32:58;101683.56;;;16.80;100.00
23261;BME280;11799;47.740;-3.390;2023-07-30T04:35:24;101678.22;;;16.80;100.00
23261;BME280;11799;47.740;-3.390;2023-07-30T04:37:49;101688.75;;;16.81;100.00
23261;BME280;11799;47.740;-3.390;2023-07-30T04:40:15;101690.59;;;16.81;100.00
23261;BME280;11799;47.740;-3.390;2023-07-30T04:42:41;101697.88;;;16.79;100.00
23261;BME280;11799;47.740;-3.390;2023-07-30T04:45:08;101686.94;;;16.82;100.00
23261;BME280;11799;47.740;-3.390;2023-07-30T04:47:37;101685.84;;;16.75;100.00
23261;BME280;11799;47.740;-3.390;2023-07-30T04:50:03;101691.00;;;16.76;100.00
23261;BME280;11799;47.740;-3.390;2023-07-30T04:52:29;101696.50;;;16.75;100.00
23261;BME280;11799;47.740;-3.390;2023-07-30T04:54:55;101697.31;;;16.75;100.00
23261;BME280;11799;47.740;-3.390;2023-07-30T04:57:20;101698.31;;;16.74;100.00
23261;BME280;11799;47.740;-3.390;2023-07-30T04:59:46;101699.97;;;16.75;100.00
23261;BME280;11799;47.740;-3.390;2023-07-30T05:02:12;101707.31;;;16.73;100.00
23261;BME280;11799;47.740;-3.390;2023-07-30T05:04:37;101707.16;;;16.75;100.00
23261;BME280;11799;47.740;-3.390;2023-07-30T05:07:03;101704.66;;;16.73;100.00
23261;BME280;11799;47.740;-3.390;2023-07-30T05:09:29;101707.97;;;16.75;100.00
23261;BME280;11799;47.740;-3.390;2023-07-30T05:11:55;101705.63;;;16.72;100.00
23261;BME280;11799;47.740;-3.390;2023-07-30T05:14:20;101709.53;;;16.68;100.00
23261;BME280;11799;47.740;-3.390;2023-07-30T05:16:46;101721.75;;;16.71;100.00
23261;BME280;11799;47.740;-3.390;2023-07-30T05:19:11;101723.44;;;16.72;100.00
23261;BME280;11799;47.740;-3.390;2023-07-30T05:21:37;101725.41;;;16.70;100.00
23261;BME280;11799;47.740;-3.390;2023-07-30T05:24:03;101723.72;;;16.69;100.00
23261;BME280;11799;47.740;-3.390;2023-07-30T05:26:28;101734.25;;;16.70;100.00
23261;BME280;11799;47.740;-3.390;2023-07-30T05:28:54;101741.97;;;16.73;100.00
23261;BME280;11799;47.740;-3.390;2023-07-30T05:31:19;101744.66;;;16.73;100.00
23261;BME280;11799;47.740;-3.390;2023-07-30T05:33:45;101741.00;;;16.74;100.00
23261;BME280;11799;47.740;-3.390;2023-07-30T05:36:10;101737.78;;;16.71;100.00
23261;BME280;11799;47.740;-3.390;2023-07-30T05:38:36;101739.31;;;16.73;100.00
23261;BME280;11799;47.740;-3.390;2023-07-30T05:41:01;101745.50;;;16.74;100.00
23261;BME280;11799;47.740;-3.390;2023-07-30T05:43:27;101744.66;;;16.73;100.00
23261;BME280;11799;47.740;-3.390;2023-07-30T05:45:52;101744.09;;;16.70;100.00
23261;BME280;11799;47.740;-3.390;2023-07-30T05:48:18;101740.31;;;16.72;100.00
23261;BME280;11799;47.740;-3.390;2023-07-30T05:50:43;101737.50;;;16.74;100.00
23261;BME280;11799;47.740;-3.390;2023-07-30T05:53:09;101741.97;;;16.73;100.00
23261;BME280;11799;47.740;-3.390;2023-07-30T05:55:34;101739.31;;;16.73;100.00
23261;BME280;11799;47.740;-3.390;2023-07-30T05:58:00;101742.81;;;16.74;100.00
23261;BME280;11799;47.740;-3.390;2023-07-30T06:00:26;101738.47;;;16.73;100.00
23261;BME280;11799;47.740;-3.390;2023-07-30T06:02:51;101750.66;;;16.75;100.00
23261;BME280;11799;47.740;-3.390;2023-07-30T06:05:17;101748.56;;;16.79;100.00
23261;BME280;11799;47.740;-3.390;2023-07-30T06:07:42;101746.16;;;16.76;100.00
23261;BME280;11799;47.740;-3.390;2023-07-30T06:10:08;101749.41;;;16.79;100.00
23261;BME280;11799;47.740;-3.390;2023-07-30T06:12:34;101751.81;;;16.82;100.00
23261;BME280;11799;47.740;-3.390;2023-07-30T06:14:59;101761.22;;;16.87;100.00
23261;BME280;11799;47.740;-3.390;2023-07-30T06:17:25;101759.13;;;16.90;100.00
23261;BME280;11799;47.740;-3.390;2023-07-30T06:19:50;101763.34;;;16.93;100.00
23261;BME280;11799;47.740;-3.390;2023-07-30T06:22:16;101760.69;;;16.93;100.00
23261;BME280;11799;47.740;-3.390;2023-07-30T06:24:41;101760.41;;;16.96;100.00
23261;BME280;11799;47.740;-3.390;2023-07-30T06:27:07;101761.69;;;17.01;100.00
23261;BME280;11799;47.740;-3.390;2023-07-30T06:29:35;101758.59;;;17.06;100.00
23261;BME280;11799;47.740;-3.390;2023-07-30T06:32:00;101756.50;;;17.09;100.00
23261;BME280;11799;47.740;-3.390;2023-07-30T06:34:26;101754.53;;;17.11;100.00
23261;BME280;11799;47.740;-3.390;2023-07-30T06:36:51;101764.09;;;17.14;100.00
23261;BME280;11799;47.740;-3.390;2023-07-30T06:39:17;101756.22;;;17.12;100.00
23261;BME280;11799;47.740;-3.390;2023-07-30T06:41:42;101764.78;;;17.16;100.00
23261;BME280;11799;47.740;-3.390;2023-07-30T06:44:09;101767.59;;;17.14;100.00
23261;BME280;11799;47.740;-3.390;2023-07-30T06:46:34;101762.13;;;17.16;100.00
23261;BME280;11799;47.740;-3.390;2023-07-30T06:49:00;101769.56;;;17.22;100.00
23261;BME280;11799;47.740;-3.390;2023-07-30T06:51:26;101779.13;;;17.25;100.00
23261;BME280;11799;47.740;-3.390;2023-07-30T06:53:52;101771.13;;;17.25;100.00
23261;BME280;11799;47.740;-3.390;2023-07-30T06:56:18;101776.19;;;17.28;100.00
23261;BME280;11799;47.740;-3.390;2023-07-30T06:58:44;101780.25;;;17.32;100.00
23261;BME280;11799;47.740;-3.390;2023-07-30T07:01:09;101774.06;;;17.31;100.00
23261;BME280;11799;47.740;-3.390;2023-07-30T07:03:35;101770.44;;;17.32;100.00
23261;BME280;11799;47.740;-3.390;2023-07-30T07:06:00;101765.66;;;17.26;100.00
23261;BME280;11799;47.740;-3.390;2023-07-30T07:08:26;101763.81;;;17.27;100.00
23261;BME280;11799;47.740;-3.390;2023-07-30T07:10:52;101773.22;;;17.31;100.00
23261;BME280;11799;47.740;-3.390;2023-07-30T07:13:18;101774.63;;;17.35;100.00
23261;BME280;11799;47.740;-3.390;2023-07-30T07:15:44;101773.78;;;17.34;100.00
23261;BME280;11799;47.740;-3.390;2023-07-30T07:18:10;101778.13;;;17.35;100.00
23261;BME280;11799;47.740;-3.390;2023-07-30T07:20:36;101779.41;;;17.41;100.00
23261;BME280;11799;47.740;-3.390;2023-07-30T07:23:02;101765.75;;;17.44;100.00
23261;BME280;11799;47.740;-3.390;2023-07-30T07:25:28;101779.13;;;17.54;100.00
23261;BME280;11799;47.740;-3.390;2023-07-30T07:27:54;101774.06;;;17.60;100.00
23261;BME280;11799;47.740;-3.390;2023-07-30T07:30:19;101777.03;;;17.67;100.00
23261;BME280;11799;47.740;-3.390;2023-07-30T07:32:45;101779.13;;;17.73;100.00
23261;BME280;11799;47.740;-3.390;2023-07-30T07:35:10;101777.72;;;17.78;100.00
23261;BME280;11799;47.740;-3.390;2023-07-30T07:37:36;101781.81;;;17.83;100.00
23261;BME280;11799;47.740;-3.390;2023-07-30T07:40:01;101780.13;;;17.81;100.00
23261;BME280;11799;47.740;-3.390;2023-07-30T07:42:29;101778.69;;;17.87;100.00
23261;BME280;11799;47.740;-3.390;2023-07-30T07:44:56;101786.25;;;17.92;100.00
23261;BME280;11799;47.740;-3.390;2023-07-30T07:47:21;101794.97;;;17.94;100.00
23261;BME280;11799;47.740;-3.390;2023-07-30T07:49:47;101798.19;;;17.97;100.00
23261;BME280;11799;47.740;-3.390;2023-07-30T07:52:13;101801.72;;;17.98;100.00
23261;BME280;11799;47.740;-3.390;2023-07-30T07:54:40;101803.84;;;17.94;100.00
23261;BME280;11799;47.740;-3.390;2023-07-30T07:57:07;101800.88;;;17.97;100.00
23261;BME280;11799;47.740;-3.390;2023-07-30T07:59:33;101805.94;;;18.00;100.00
23261;BME280;11799;47.740;-3.390;2023-07-30T08:01:58;101803.81;;;18.04;100.00
23261;BME280;11799;47.740;-3.390;2023-07-30T08:04:24;101811.25;;;18.10;100.00
23261;BME280;11799;47.740;-3.390;2023-07-30T08:06:49;101806.06;;;18.08;100.00
23261;BME280;11799;47.740;-3.390;2023-07-30T08:09:15;101816.75;;;18.18;100.00
23261;BME280;11799;47.740;-3.390;2023-07-30T08:11:40;101817.44;;;18.20;100.00
23261;BME280;11799;47.740;-3.390;2023-07-30T08:14:06;101824.31;;;18.23;100.00
23261;BME280;11799;47.740;-3.390;2023-07-30T08:16:31;101810.41;;;18.19;100.00
23261;BME280;11799;47.740;-3.390;2023-07-30T08:18:57;101828.69;;;18.24;100.00
23261;BME280;11799;47.740;-3.390;2023-07-30T08:21:22;101824.19;;;18.24;100.00
23261;BME280;11799;47.740;-3.390;2023-07-30T08:23:48;101820.66;;;18.24;100.00
23261;BME280;11799;47.740;-3.390;2023-07-30T08:26:14;101825.56;;;18.28;100.00
23261;BME280;11799;47.740;-3.390;2023-07-30T08:28:39;101826.69;;;18.35;100.00
23261;BME280;11799;47.740;-3.390;2023-07-30T08:31:05;101828.09;;;18.39;100.00
23261;BME280;11799;47.740;-3.390;2023-07-30T08:33:31;101825.25;;;18.41;100.00
23261;BME280;11799;47.740;-3.390;2023-07-30T08:35:56;101820.91;;;18.40;100.00
23261;BME280;11799;47.740;-3.390;2023-07-30T08:38:23;101814.81;;;18.47;100.00
23261;BME280;11799;47.740;-3.390;2023-07-30T08:40:48;101824.75;;;18.55;100.00
23261;BME280;11799;47.740;-3.390;2023-07-30T08:43:15;101826.44;;;18.66;100.00
23261;BME280;11799;47.740;-3.390;2023-07-30T08:45:41;101827.84;;;18.70;100.00
23261;BME280;11799;47.740;-3.390;2023-07-30T08:48:07;101822.59;;;18.78;100.00
23261;BME280;11799;47.740;-3.390;2023-07-30T08:50:33;101823.00;;;18.83;100.00
23261;BME280;11799;47.740;-3.390;2023-07-30T08:53:00;101821.69;;;18.87;100.00
23261;BME280;11799;47.740;-3.390;2023-07-30T08:55:28;101818.72;;;18.90;100.00
23261;BME280;11799;47.740;-3.390;2023-07-30T08:57:56;101821.81;;;18.95;100.00
23261;BME280;11799;47.740;-3.390;2023-07-30T09:00:25;101817.53;;;19.02;100.00
23261;BME280;11799;47.740;-3.390;2023-07-30T09:02:58;101827.47;;;19.10;100.00
23261;BME280;11799;47.740;-3.390;2023-07-30T09:05:26;101831.38;;;19.16;100.00
23261;BME280;11799;47.740;-3.390;2023-07-30T09:07:57;101836.13;;;19.22;100.00
23261;BME280;11799;47.740;-3.390;2023-07-30T09:10:23;101829.47;;;19.26;100.00
23261;BME280;11799;47.740;-3.390;2023-07-30T09:12:54;101843.81;;;19.34;100.00
23261;BME280;11799;47.740;-3.390;2023-07-30T09:15:29;101837.16;;;19.38;100.00
23261;BME280;11799;47.740;-3.390;2023-07-30T09:17:55;101836.16;;;19.39;100.00
23261;BME280;11799;47.740;-3.390;2023-07-30T09:20:21;101846.97;;;19.48;100.00
23261;BME280;11799;47.740;-3.390;2023-07-30T09:22:46;101843.00;;;19.52;100.00
23261;BME280;11799;47.740;-3.390;2023-07-30T09:25:14;101842.28;;;19.50;100.00
23261;BME280;11799;47.740;-3.390;2023-07-30T09:27:41;101836.66;;;19.53;100.00
23261;BME280;11799;47.740;-3.390;2023-07-30T09:30:07;101849.13;;;19.62;100.00
23261;BME280;11799;47.740;-3.390;2023-07-30T09:32:34;101838.28;;;19.63;100.00
23261;BME280;11799;47.740;-3.390;2023-07-30T09:35:08;101855.53;;;19.69;100.00
23261;BME280;11799;47.740;-3.390;2023-07-30T09:37:40;101847.03;;;19.73;100.00
23261;BME280;11799;47.740;-3.390;2023-07-30T09:40:08;101816.19;;;19.69;100.00
23261;BME280;11799;47.740;-3.390;2023-07-30T09:42:37;101842.59;;;19.82;100.00
23261;BME280;11799;47.740;-3.390;2023-07-30T09:45:06;101834.72;;;19.81;100.00
23261;BME280;11799;47.740;-3.390;2023-07-30T09:47:37;101835.63;;;19.89;100.00
23261;BME280;11799;47.740;-3.390;2023-07-30T09:50:02;101838.53;;;19.96;100.00
23261;BME280;11799;47.740;-3.390;2023-07-30T09:52:30;101841.66;;;19.91;100.00
23261;BME280;11799;47.740;-3.390;2023-07-30T09:55:00;101836.84;;;19.95;100.00
23261;BME280;11799;47.740;-3.390;2023-07-30T09:57:25;101837.69;;;19.95;100.00
23261;BME280;11799;47.740;-3.390;2023-07-30T09:59:51;101835.84;;;19.96;100.00
23261;BME280;11799;47.740;-3.390;2023-07-30T10:02:18;101835.16;;;19.94;100.00
23261;BME280;11799;47.740;-3.390;2023-07-30T10:04:49;101830.47;;;19.96;100.00
23261;BME280;11799;47.740;-3.390;2023-07-30T10:07:19;101842.97;;;20.05;100.00
23261;BME280;11799;47.740;-3.390;2023-07-30T10:09:46;101852.84;;;20.04;100.00
23261;BME280;11799;47.740;-3.390;2023-07-30T10:12:18;101857.75;;;20.09;100.00
23261;BME280;11799;47.740;-3.390;2023-07-30T10:14:46;101857.88;;;20.07;100.00
23261;BME280;11799;47.740;-3.390;2023-07-30T10:17:12;101863.09;;;20.09;100.00
23261;BME280;11799;47.740;-3.390;2023-07-30T10:19:38;101874.28;;;20.04;100.00
23261;BME280;11799;47.740;-3.390;2023-07-30T10:24:38;101871.53;;;20.14;100.00
23261;BME280;11799;47.740;-3.390;2023-07-30T10:27:08;101862.72;;;20.04;100.00
23261;BME280;11799;47.740;-3.390;2023-07-30T10:29:35;101872.59;;;20.03;100.00
23261;BME280;11799;47.740;-3.390;2023-07-30T10:32:01;101876.91;;;19.96;100.00
23261;BME280;11799;47.740;-3.390;2023-07-30T10:34:45;101879.97;;;19.84;100.00
23261;BME280;11799;47.740;-3.390;2023-07-30T10:37:17;101874.00;;;19.90;100.00
23261;BME280;11799;47.740;-3.390;2023-07-30T10:39:43;101868.84;;;19.96;100.00
23261;BME280;11799;47.740;-3.390;2023-07-30T10:42:08;101867.56;;;20.00;100.00
23261;BME280;11799;47.740;-3.390;2023-07-30T10:44:35;101876.44;;;20.01;100.00
23261;BME280;11799;47.740;-3.390;2023-07-30T10:47:02;101876.44;;;20.01;100.00
23261;BME280;11799;47.740;-3.390;2023-07-30T10:49:29;101870.75;;;20.04;100.00
23261;BME280;11799;47.740;-3.390;2023-07-30T10:51:56;101874.19;;;20.14;100.00
23261;BME280;11799;47.740;-3.390;2023-07-30T10:54:22;101872.06;;;20.18;100.00
23261;BME280;11799;47.740;-3.390;2023-07-30T10:56:48;101877.59;;;20.24;100.00
23261;BME280;11799;47.740;-3.390;2023-07-30T10:59:14;101878.81;;;20.30;100.00
23261;BME280;11799;47.740;-3.390;2023-07-30T11:01:42;101883.56;;;20.36;100.00
23261;BME280;11799;47.740;-3.390;2023-07-30T11:04:13;101882.13;;;20.41;100.00
23261;BME280;11799;47.740;-3.390;2023-07-30T11:06:45;101885.16;;;20.47;100.00
23261;BME280;11799;47.740;-3.390;2023-07-30T11:09:21;101872.44;;;20.49;100.00
23261;BME280;11799;47.740;-3.390;2023-07-30T11:11:48;101882.38;;;20.56;100.00
23261;BME280;11799;47.740;-3.390;2023-07-30T11:14:18;101875.34;;;20.55;100.00
23261;BME280;11799;47.740;-3.390;2023-07-30T11:16:57;101870.66;;;20.57;100.00
23261;BME280;11799;47.740;-3.390;2023-07-30T11:19:27;101868.00;;;20.65;100.00
23261;BME280;11799;47.740;-3.390;2023-07-30T11:21:54;101872.59;;;20.73;100.00
23261;BME280;11799;47.740;-3.390;2023-07-30T11:24:20;101867.91;;;20.75;100.00
23261;BME280;11799;47.740;-3.390;2023-07-30T11:27:02;101876.78;;;20.75;100.00
23261;BME280;11799;47.740;-3.390;2023-07-30T11:29:28;101874.09;;;20.75;100.00
23261;BME280;11799;47.740;-3.390;2023-07-30T11:31:56;101880.16;;;20.77;100.00
23261;BME280;11799;47.740;-3.390;2023-07-30T11:34:23;101878.81;;;20.82;100.00
23261;BME280;11799;47.740;-3.390;2023-07-30T11:36:49;101879.66;;;20.82;100.00
23261;BME280;11799;47.740;-3.390;2023-07-30T11:39:15;101876.13;;;20.82;100.00
23261;BME280;11799;47.740;-3.390;2023-07-30T11:41:41;101887.06;;;20.88;100.00
23261;BME280;11799;47.740;-3.390;2023-07-30T11:44:06;101894.91;;;20.82;100.00
23261;BME280;11799;47.740;-3.390;2023-07-30T11:46:32;101886.03;;;20.81;100.00
23261;BME280;11799;47.740;-3.390;2023-07-30T11:49:13;101888.22;;;20.77;100.00
23261;BME280;11799;47.740;-3.390;2023-07-30T11:51:39;101877.44;;;20.69;100.00
23261;BME280;11799;47.740;-3.390;2023-07-30T11:54:04;101888.22;;;20.77;100.00
23261;BME280;11799;47.740;-3.390;2023-07-30T11:56:32;101895.44;;;20.77;100.00
23261;BME280;11799;47.740;-3.390;2023-07-30T11:59:20;101883.31;;;20.73;100.00
23261;BME280;11799;47.740;-3.390;2023-07-30T12:01:46;101887.22;;;20.87;100.00
23261;BME280;11799;47.740;-3.390;2023-07-30T12:04:12;101891.94;;;20.93;100.00
23261;BME280;11799;47.740;-3.390;2023-07-30T12:06:48;101887.41;;;20.93;100.00
23261;BME280;11799;47.740;-3.390;2023-07-30T12:12:01;101892.84;;;21.01;100.00
23261;BME280;11799;47.740;-3.390;2023-07-30T12:14:28;101897.72;;;21.06;100.00
23261;BME280;11799;47.740;-3.390;2023-07-30T12:16:59;101885.50;;;21.12;100.00
23261;BME280;11799;47.740;-3.390;2023-07-30T12:19:25;101894.06;;;21.15;100.00
23261;BME280;11799;47.740;-3.390;2023-07-30T12:21:50;101882.22;;;21.26;100.00
23261;BME280;11799;47.740;-3.390;2023-07-30T12:24:16;101890.63;;;21.39;100.00
23261;BME280;11799;47.740;-3.390;2023-07-30T12:26:41;101882.41;;;21.40;100.00
23261;BME280;11799;47.740;-3.390;2023-07-30T12:29:07;101875.69;;;21.45;100.00
23261;BME280;11799;47.740;-3.390;2023-07-30T12:31:33;101876.03;;;21.50;100.00